createdAt,value
2018-05-23T00:01:00.545Z,90.00
2018-05-23T00:03:28.650Z,90.00
2018-05-23T00:05:56.720Z,90.00
2018-05-23T00:08:24.793Z,90.20
2018-05-23T00:10:53.332Z,90.00
2018-05-23T00:13:21.393Z,90.10
2018-05-23T00:15:49.493Z,90.20
2018-05-23T00:18:17.589Z,90.30
2018-05-23T00:20:45.628Z,90.40
2018-05-23T00:23:13.689Z,90.40
2018-05-23T00:25:41.773Z,90.40
2018-05-23T00:28:09.862Z,90.40
2018-05-23T00:30:37.913Z,90.30
2018-05-23T00:33:06.444Z,90.40
2018-05-23T00:35:35.444Z,90.50
2018-05-23T00:38:04.490Z,90.50
2018-05-23T00:40:32.559Z,90.60
2018-05-23T00:43:00.621Z,90.60
2018-05-23T00:45:28.701Z,90.70
2018-05-23T00:47:57.053Z,90.80
2018-05-23T00:50:25.181Z,90.80
2018-05-23T00:52:54.041Z,91.00
2018-05-23T00:55:22.333Z,90.90
2018-05-23T00:57:50.405Z,91.00
2018-05-23T01:00:18.457Z,91.00
2018-05-23T01:02:46.561Z,90.90
2018-05-23T01:05:14.601Z,90.80
2018-05-23T01:07:43.325Z,90.40
2018-05-23T01:10:12.193Z,90.90
2018-05-23T01:12:41.685Z,90.90
2018-05-23T01:15:09.773Z,91.00
2018-05-23T01:17:38.149Z,91.00
2018-05-23T01:20:06.196Z,91.10
2018-05-23T01:22:34.255Z,91.20
2018-05-23T01:25:02.328Z,91.20
2018-05-23T01:27:30.393Z,91.10
2018-05-23T01:29:58.468Z,91.00
2018-05-23T01:32:26.560Z,91.10
2018-05-23T01:34:54.649Z,91.10
2018-05-23T01:37:22.693Z,91.20
2018-05-23T01:39:50.997Z,91.20
2018-05-23T01:42:19.072Z,91.30
2018-05-23T01:44:47.141Z,91.20
2018-05-23T01:47:15.230Z,91.20
2018-05-23T01:49:43.301Z,91.20
2018-05-23T01:52:12.132Z,91.20
2018-05-23T01:54:40.216Z,91.20
2018-05-23T01:57:08.276Z,91.10
2018-05-23T01:59:36.373Z,91.00
2018-05-23T02:02:04.665Z,91.20
2018-05-23T02:04:32.716Z,91.30
2018-05-23T02:07:00.805Z,91.30
2018-05-23T02:09:28.860Z,91.30
2018-05-23T02:11:56.949Z,91.30
2018-05-23T02:14:25.439Z,91.40
2018-05-23T02:16:53.485Z,91.50
2018-05-23T02:19:21.544Z,91.50
2018-05-23T02:21:49.630Z,91.70
2018-05-23T02:24:17.895Z,91.70
2018-05-23T02:26:45.952Z,91.90
2018-05-23T02:29:14.969Z,91.90
2018-05-23T02:31:43.031Z,91.90
2018-05-23T02:34:11.089Z,92.00
2018-05-23T02:36:39.251Z,92.20
2018-05-23T02:39:07.273Z,92.70
2018-05-23T02:41:35.330Z,92.20
2018-05-23T02:44:03.745Z,92.10
2018-05-23T02:46:32.593Z,92.20
2018-05-23T02:49:00.656Z,92.10
2018-05-23T02:51:29.668Z,92.10
2018-05-23T02:53:57.717Z,92.20
2018-05-23T02:56:25.801Z,92.20
2018-05-23T02:58:54.236Z,92.10
2018-05-23T03:01:22.333Z,92.20
2018-05-23T03:03:50.413Z,92.20
2018-05-23T03:06:18.513Z,92.20
2018-05-23T03:08:46.585Z,92.00
2018-05-23T03:11:14.657Z,92.00
2018-05-23T03:13:43.928Z,92.00
2018-05-23T03:16:12.015Z,92.10
2018-05-23T03:18:40.159Z,92.10
2018-05-23T03:21:08.236Z,92.20
2018-05-23T03:23:36.305Z,92.30
2018-05-23T03:26:04.401Z,92.40
2018-05-23T03:28:32.705Z,92.40
2018-05-23T03:31:01.569Z,92.50
2018-05-23T03:33:29.657Z,92.40
2018-05-23T03:35:58.529Z,92.30
2018-05-23T03:38:26.617Z,92.50
2018-05-23T03:40:54.660Z,92.50
2018-05-23T03:43:22.833Z,92.50
2018-05-23T03:45:50.892Z,92.40
2018-05-23T03:48:18.998Z,92.30
2018-05-23T03:50:47.089Z,92.40
2018-05-23T03:53:15.176Z,92.50
2018-05-23T03:55:44.000Z,92.50
2018-05-23T03:58:12.328Z,92.50
2018-05-23T04:00:40.369Z,92.50
2018-05-23T04:03:08.430Z,92.50
2018-05-23T04:05:36.760Z,92.50
2018-05-23T04:08:05.693Z,92.70
2018-05-23T04:10:33.760Z,92.70
2018-05-23T04:13:02.176Z,92.80
2018-05-23T04:15:30.277Z,92.80
2018-05-23T04:17:58.333Z,92.90
2018-05-23T04:20:27.624Z,92.70
2018-05-23T04:22:55.665Z,92.70
2018-05-23T04:25:23.745Z,92.80
2018-05-23T04:27:52.141Z,92.80
2018-05-23T04:30:20.192Z,93.00
2018-05-23T04:32:49.206Z,93.10
2018-05-23T04:35:17.256Z,93.10
2018-05-23T04:37:45.317Z,93.00
2018-05-23T04:40:13.400Z,93.00
2018-05-23T04:42:41.461Z,92.90
2018-05-23T04:45:09.545Z,92.90
2018-05-23T04:47:37.616Z,92.90
2018-05-23T04:50:05.681Z,92.80
2018-05-23T04:52:33.737Z,92.70
2018-05-23T04:55:01.822Z,92.60
2018-05-23T04:57:29.886Z,92.60
2018-05-23T04:59:58.576Z,92.70
2018-05-23T05:02:26.661Z,92.70
2018-05-23T05:04:54.721Z,92.60
2018-05-23T05:07:22.892Z,92.60
2018-05-23T05:09:51.681Z,92.30
2018-05-23T05:12:19.738Z,92.30
2018-05-23T05:14:48.749Z,92.30
2018-05-23T05:17:17.636Z,92.40
2018-05-23T05:19:46.365Z,92.30
2018-05-23T05:22:16.881Z,92.30
2018-05-23T05:24:44.938Z,92.40
2018-05-23T05:27:14.016Z,92.30
2018-05-23T05:29:42.105Z,92.40
2018-05-23T05:32:10.877Z,92.30
2018-05-23T05:34:39.812Z,92.20
2018-05-23T05:37:08.585Z,92.10
2018-05-23T05:39:37.753Z,92.10
2018-05-23T05:42:06.645Z,92.20
2018-05-23T05:44:35.670Z,92.00
2018-05-23T05:47:04.444Z,91.90
2018-05-23T05:49:33.112Z,92.00
2018-05-23T05:52:02.105Z,92.10
2018-05-23T05:54:30.928Z,92.00
2018-05-23T05:56:59.813Z,91.90
2018-05-23T05:59:28.705Z,91.70
2018-05-23T06:01:57.871Z,90.70
2018-05-23T06:04:26.981Z,90.20
2018-05-23T06:06:55.799Z,90.60
2018-05-23T06:09:24.637Z,89.70
2018-05-23T06:11:53.153Z,90.20
2018-05-23T06:14:21.395Z,90.40
2018-05-23T06:16:49.432Z,90.00
2018-05-23T06:19:18.609Z,89.60
2018-05-23T06:21:47.489Z,89.50
2018-05-23T06:24:16.377Z,89.30
2018-05-23T06:26:44.974Z,88.80
2018-05-23T06:29:13.055Z,89.10
2018-05-23T06:31:41.692Z,88.70
2018-05-23T06:34:11.828Z,88.80
2018-05-23T06:36:39.819Z,88.40
2018-05-23T06:39:07.890Z,88.40
2018-05-23T06:41:35.977Z,88.00
2018-05-23T06:44:05.734Z,88.30
2018-05-23T06:46:34.432Z,88.10
2018-05-23T06:49:03.099Z,88.10
2018-05-23T06:51:31.948Z,89.00
2018-05-23T06:54:01.445Z,89.50
2018-05-23T06:56:31.108Z,89.00
2018-05-23T06:58:59.173Z,89.00
2018-05-23T07:01:28.109Z,89.80
2018-05-23T07:03:56.965Z,90.20
2018-05-23T07:06:25.669Z,90.10
2018-05-23T07:08:54.333Z,90.40
2018-05-23T07:11:23.124Z,91.10
2018-05-23T07:13:51.942Z,91.10
2018-05-23T07:16:20.000Z,91.10
2018-05-23T07:18:49.619Z,91.30
2018-05-23T07:21:18.377Z,90.30
2018-05-23T07:23:47.269Z,90.60
2018-05-23T07:26:16.060Z,91.10
2018-05-23T07:28:45.257Z,91.30
2018-05-23T07:31:14.031Z,91.30
2018-05-23T07:33:42.645Z,90.70
2018-05-23T07:36:11.665Z,90.80
2018-05-23T07:38:41.422Z,90.10
2018-05-23T07:41:11.295Z,90.00
2018-05-23T07:43:40.152Z,89.20
2018-05-23T07:46:08.667Z,89.20
2018-05-23T07:48:38.370Z,90.00
2018-05-23T07:51:08.333Z,90.60
2018-05-23T07:53:37.291Z,90.20
2018-05-23T07:56:06.952Z,84.40
2018-05-23T07:58:35.050Z,84.40
2018-05-23T08:01:03.130Z,79.60
2018-05-23T08:03:32.959Z,70.60
2018-05-23T08:06:01.702Z,70.50
2018-05-23T08:08:30.680Z,74.80
2018-05-23T08:10:59.521Z,70.30
2018-05-23T08:13:29.238Z,72.50
2018-05-23T08:15:58.098Z,77.50
2018-05-23T08:18:26.779Z,77.50
2018-05-23T08:20:54.872Z,76.30
2018-05-23T08:23:24.331Z,72.10
2018-05-23T08:25:52.471Z,71.80
2018-05-23T08:28:21.281Z,69.90
2018-05-23T08:30:50.646Z,68.70
2018-05-23T08:33:20.666Z,71.30
2018-05-23T08:35:50.875Z,69.70
2018-05-23T08:38:19.791Z,69.60
2018-05-23T08:40:48.661Z,69.40
2018-05-23T08:43:19.102Z,64.90
2018-05-23T08:45:49.378Z,66.50
2018-05-23T08:48:18.456Z,66.50
2018-05-23T08:50:46.562Z,70.60
2018-05-23T08:53:15.350Z,71.50
2018-05-23T08:55:44.440Z,68.60
2018-05-23T08:58:13.803Z,67.80
2018-05-23T09:00:42.433Z,68.70
2018-05-23T09:03:10.497Z,71.10
2018-05-23T09:05:39.245Z,69.10
2018-05-23T09:08:07.361Z,70.90
2018-05-23T09:10:36.117Z,71.10
2018-05-23T09:13:04.764Z,72.00
2018-05-23T09:15:33.643Z,70.00
2018-05-23T09:18:03.563Z,69.90
2018-05-23T09:20:32.759Z,67.70
2018-05-23T09:23:01.553Z,67.60
2018-05-23T09:25:31.224Z,71.40
2018-05-23T09:27:59.983Z,71.50
2018-05-23T09:30:28.925Z,70.50
2018-05-23T09:32:57.488Z,69.10
2018-05-23T09:35:25.574Z,69.90
2018-05-23T09:37:56.634Z,67.00
2018-05-23T09:40:25.520Z,66.80
2018-05-23T09:42:55.023Z,66.00
2018-05-23T09:45:25.594Z,65.30
2018-05-23T09:47:54.584Z,65.20
2018-05-23T09:50:23.863Z,64.90
2018-05-23T09:52:52.716Z,61.50
2018-05-23T09:55:22.343Z,61.40
2018-05-23T09:57:51.226Z,59.30
2018-05-23T10:00:21.000Z,59.40
2018-05-23T10:02:49.826Z,59.40
2018-05-23T10:05:18.586Z,57.50
2018-05-23T10:07:47.411Z,56.10
2018-05-23T10:10:17.009Z,54.50
2018-05-23T10:12:46.783Z,54.70
2018-05-23T10:15:16.608Z,54.70
2018-05-23T10:17:45.346Z,55.10
2018-05-23T10:20:14.885Z,57.30
2018-05-23T10:22:43.821Z,57.30
2018-05-23T10:25:12.697Z,56.00
2018-05-23T10:27:41.264Z,56.70
2018-05-23T10:30:10.725Z,58.30
2018-05-23T10:32:39.777Z,56.30
2018-05-23T10:35:08.567Z,57.50
2018-05-23T10:37:37.454Z,59.90
2018-05-23T10:40:05.572Z,62.10
2018-05-23T10:42:33.634Z,63.50
2018-05-23T10:45:01.734Z,65.20
2018-05-23T10:47:30.432Z,65.80
2018-05-23T10:49:59.340Z,67.90
2018-05-23T10:52:28.367Z,66.90
2018-05-23T10:54:58.269Z,68.80
2018-05-23T10:57:27.895Z,72.00
2018-05-23T10:59:56.773Z,72.00
2018-05-23T11:02:25.504Z,71.90
2018-05-23T11:04:54.463Z,72.00
2018-05-23T11:07:23.840Z,69.00
2018-05-23T11:09:52.780Z,69.10
2018-05-23T11:12:21.550Z,70.20
2018-05-23T11:14:50.432Z,72.70
2018-05-23T11:17:20.318Z,72.10
2018-05-23T11:19:49.482Z,72.10
2018-05-23T11:22:18.193Z,71.70
2018-05-23T11:24:46.340Z,68.20
2018-05-23T11:27:14.459Z,69.50
2018-05-23T11:29:44.279Z,71.20
2018-05-23T11:32:13.985Z,68.60
2018-05-23T11:34:44.310Z,69.60
2018-05-23T11:37:13.057Z,69.40
2018-05-23T11:39:41.672Z,69.60
2018-05-23T11:42:10.454Z,69.50
2018-05-23T11:44:39.284Z,68.10
2018-05-23T11:47:08.224Z,66.90
2018-05-23T11:49:38.367Z,66.90
2018-05-23T11:52:07.555Z,66.90
2018-05-23T11:54:35.689Z,68.10
2018-05-23T11:57:05.643Z,67.10
2018-05-23T11:59:34.552Z,67.10
2018-05-23T12:02:03.967Z,65.60
2018-05-23T12:04:32.739Z,65.50
2018-05-23T12:07:01.842Z,65.10
2018-05-23T12:09:32.000Z,65.50
2018-05-23T12:12:00.637Z,65.50
2018-05-23T12:14:29.409Z,64.80
2018-05-23T12:16:58.009Z,66.40
2018-05-23T12:19:26.445Z,67.50
2018-05-23T12:21:54.538Z,66.30
2018-05-23T12:24:25.806Z,65.30
2018-05-23T12:26:54.771Z,65.20
2018-05-23T12:29:23.780Z,63.30
2018-05-23T12:31:51.874Z,64.10
2018-05-23T12:34:21.465Z,61.40
2018-05-23T12:36:50.204Z,61.40
2018-05-23T12:39:18.275Z,55.50
2018-05-23T12:41:47.799Z,53.10
2018-05-23T12:44:17.109Z,53.70
2018-05-23T12:46:45.217Z,52.70
2018-05-23T12:49:14.615Z,51.90
2018-05-23T12:51:43.472Z,51.00
2018-05-23T12:54:11.549Z,51.00
2018-05-23T12:56:40.268Z,52.20
2018-05-23T12:59:08.334Z,52.70
2018-05-23T13:01:38.192Z,55.10
2018-05-23T13:04:06.281Z,55.10
2018-05-23T13:06:34.885Z,55.20
2018-05-23T13:09:03.597Z,56.80
2018-05-23T13:11:33.457Z,57.00
2018-05-23T13:14:01.622Z,57.00
2018-05-23T13:16:30.387Z,57.40
2018-05-23T13:18:58.484Z,56.10
2018-05-23T13:21:26.551Z,54.70
2018-05-23T13:23:55.133Z,52.00
2018-05-23T13:26:24.651Z,50.10
2018-05-23T13:28:53.164Z,48.90
2018-05-23T13:31:21.985Z,49.90
2018-05-23T13:33:51.397Z,49.40
2018-05-23T13:36:20.151Z,49.40
2018-05-23T13:38:49.246Z,48.40
2018-05-23T13:41:17.933Z,48.90
2018-05-23T13:43:47.602Z,46.30
2018-05-23T13:46:17.163Z,46.20
2018-05-23T13:48:46.502Z,47.90
2018-05-23T13:51:15.222Z,47.80
2018-05-23T13:53:43.266Z,49.60
2018-05-23T13:56:11.969Z,48.30
2018-05-23T13:58:40.052Z,46.40
2018-05-23T14:01:08.712Z,47.50
2018-05-23T14:03:36.809Z,47.30
2018-05-23T14:06:05.364Z,49.00
2018-05-23T14:08:33.465Z,49.50
2018-05-23T14:11:01.517Z,48.50
2018-05-23T14:13:30.292Z,47.60
2018-05-23T14:15:59.382Z,47.50
2018-05-23T14:18:27.451Z,49.30
2018-05-23T14:20:56.395Z,47.90
2018-05-23T14:23:24.438Z,49.40
2018-05-23T14:25:53.657Z,48.80
2018-05-23T14:28:21.782Z,48.50
2018-05-23T14:30:52.665Z,49.80
2018-05-23T14:33:22.578Z,49.60
2018-05-23T14:35:51.875Z,48.40
2018-05-23T14:38:20.092Z,48.20
2018-05-23T14:40:48.468Z,47.10
2018-05-23T14:43:16.545Z,47.50
2018-05-23T14:45:44.851Z,49.80
2018-05-23T14:48:13.229Z,51.60
2018-05-23T14:50:41.302Z,51.70
2018-05-23T14:53:09.406Z,52.80
2018-05-23T14:55:38.194Z,50.70
2018-05-23T14:58:06.292Z,52.20
2018-05-23T15:00:35.110Z,47.60
2018-05-23T15:03:03.837Z,47.60
2018-05-23T15:05:31.909Z,49.40
2018-05-23T15:07:59.996Z,49.50
2018-05-23T15:10:28.109Z,49.60
2018-05-23T15:12:56.737Z,49.80
2018-05-23T15:15:24.806Z,46.80
2018-05-23T15:17:52.878Z,46.90
2018-05-23T15:20:20.969Z,48.20
2018-05-23T15:22:49.803Z,52.10
2018-05-23T15:25:17.947Z,52.00
2018-05-23T15:27:46.677Z,52.90
2018-05-23T15:30:14.744Z,50.70
2018-05-23T15:32:42.824Z,52.50
2018-05-23T15:35:11.247Z,52.80
2018-05-23T15:37:39.255Z,53.90
2018-05-23T15:40:07.320Z,53.20
2018-05-23T15:42:35.743Z,51.90
2018-05-23T15:45:03.813Z,50.30
2018-05-23T15:47:32.717Z,50.30
2018-05-23T15:50:01.624Z,51.50
2018-05-23T15:52:31.587Z,54.80
2018-05-23T15:54:59.682Z,54.80
2018-05-23T15:57:28.688Z,55.30
2018-05-23T15:59:57.581Z,56.40
2018-05-23T16:02:25.652Z,55.30
2018-05-23T16:04:54.602Z,55.20
2018-05-23T16:07:23.393Z,53.80
2018-05-23T16:09:52.309Z,53.20
2018-05-23T16:12:20.353Z,53.30
2018-05-23T16:14:48.464Z,53.90
2018-05-23T16:17:16.765Z,55.40
2018-05-23T16:19:45.593Z,56.10
2018-05-23T16:22:13.673Z,56.00
2018-05-23T16:24:41.773Z,57.10
2018-05-23T16:27:10.653Z,56.10
2018-05-23T16:29:39.616Z,57.10
2018-05-23T16:32:07.783Z,54.90
2018-05-23T16:34:35.857Z,52.30
2018-05-23T16:37:04.253Z,54.30
2018-05-23T16:39:32.365Z,55.00
2018-05-23T16:42:01.193Z,55.50
2018-05-23T16:44:29.636Z,55.50
2018-05-23T16:46:57.617Z,55.40
2018-05-23T16:49:25.680Z,56.60
2018-05-23T16:51:54.205Z,56.50
2018-05-23T16:54:22.289Z,58.80
2018-05-23T16:56:50.377Z,66.60
2018-05-23T16:59:18.436Z,76.90
2018-05-23T17:01:46.521Z,83.10
2018-05-23T17:04:14.561Z,88.20
2018-05-23T17:06:42.954Z,89.90
2018-05-23T17:09:11.014Z,92.20
2018-05-23T17:11:39.089Z,92.30
2018-05-23T17:14:07.393Z,92.30
2018-05-23T17:16:35.473Z,92.70
2018-05-23T17:19:03.524Z,93.60
2018-05-23T17:21:31.589Z,93.20
2018-05-23T17:23:59.645Z,94.30
2018-05-23T17:26:27.807Z,94.30
2018-05-23T17:28:56.477Z,94.30
2018-05-23T17:31:25.189Z,93.80
2018-05-23T17:33:54.284Z,94.50
2018-05-23T17:36:22.356Z,94.40
2018-05-23T17:38:51.380Z,94.80
2018-05-23T17:41:19.433Z,94.90
2018-05-23T17:43:47.492Z,95.10
2018-05-23T17:46:15.901Z,93.90
2018-05-23T17:48:43.980Z,94.50
2018-05-23T17:51:13.540Z,94.60
2018-05-23T17:53:41.613Z,94.60
2018-05-23T17:56:09.707Z,93.90
2018-05-23T17:58:37.768Z,93.80
2018-05-23T18:01:06.248Z,92.90
2018-05-23T18:03:34.345Z,94.10
2018-05-23T18:06:03.622Z,94.60
2018-05-23T18:08:31.601Z,94.70
2018-05-23T18:10:59.689Z,95.00
2018-05-23T18:13:28.037Z,94.60
2018-05-23T18:15:56.121Z,94.20
2018-05-23T18:18:24.208Z,94.20
2018-05-23T18:20:52.589Z,94.60
2018-05-23T18:23:20.695Z,93.80
2018-05-23T18:25:48.713Z,94.80
2018-05-23T18:28:16.819Z,94.10
2018-05-23T18:30:45.014Z,93.30
2018-05-23T18:33:13.061Z,94.60
2018-05-23T18:35:42.245Z,94.80
2018-05-23T18:38:10.313Z,94.80
2018-05-23T18:40:38.385Z,94.30
2018-05-23T18:43:07.452Z,94.60
2018-05-23T18:45:36.140Z,95.10
2018-05-23T18:48:04.237Z,94.90
2018-05-23T18:50:32.321Z,94.80
2018-05-23T18:53:00.661Z,95.00
2018-05-23T18:55:28.762Z,95.50
2018-05-23T18:57:56.833Z,95.50
2018-05-23T19:00:25.181Z,95.60
2018-05-23T19:02:53.265Z,95.50
2018-05-23T19:05:21.332Z,95.70
2018-05-23T19:07:49.733Z,95.90
2018-05-23T19:10:17.891Z,95.90
2018-05-23T19:12:45.949Z,96.00
2018-05-23T19:15:14.357Z,96.20
2018-05-23T19:17:42.409Z,95.90
2018-05-23T19:20:10.545Z,95.70
2018-05-23T19:22:38.852Z,95.90
2018-05-23T19:25:06.950Z,95.90
2018-05-23T19:27:35.002Z,96.00
2018-05-23T19:30:03.502Z,96.00
2018-05-23T19:32:31.561Z,95.90
2018-05-23T19:34:59.702Z,96.10
2018-05-23T19:37:28.096Z,96.10
2018-05-23T19:39:56.199Z,96.00
2018-05-23T19:42:24.269Z,96.00
2018-05-23T19:44:52.324Z,96.00
2018-05-23T19:47:20.547Z,96.00
2018-05-23T19:49:48.581Z,96.10
2018-05-23T19:52:16.719Z,96.10
2018-05-23T19:54:44.786Z,96.00
2018-05-23T19:57:12.865Z,96.10
2018-05-23T19:59:41.248Z,96.10
2018-05-23T20:02:09.399Z,96.20
2018-05-23T20:04:37.405Z,96.10
2018-05-23T20:07:05.510Z,96.30
2018-05-23T20:09:34.345Z,96.20
2018-05-23T20:12:02.516Z,96.20
2018-05-23T20:14:30.903Z,96.20
2018-05-23T20:16:58.921Z,96.10
2018-05-23T20:19:27.757Z,96.10
2018-05-23T20:21:56.145Z,96.10
2018-05-23T20:24:24.203Z,96.10
2018-05-23T20:26:52.305Z,96.20
2018-05-23T20:29:20.946Z,96.30
2018-05-23T20:31:48.957Z,96.30
2018-05-23T20:34:17.017Z,96.30
2018-05-23T20:36:45.393Z,96.40
2018-05-23T20:39:13.471Z,96.40
2018-05-23T20:41:41.540Z,96.50
2018-05-23T20:44:09.649Z,96.50
2018-05-23T20:46:37.725Z,96.40
2018-05-23T20:49:06.682Z,96.60
2018-05-23T20:51:34.785Z,96.50
2018-05-23T20:54:02.857Z,96.50
2018-05-23T20:56:32.433Z,96.20
2018-05-23T20:59:00.783Z,96.20
2018-05-23T21:01:28.804Z,96.20
2018-05-23T21:03:56.854Z,96.30
2018-05-23T21:06:24.929Z,96.30
2018-05-23T21:08:53.008Z,96.50
2018-05-23T21:11:21.090Z,96.50
2018-05-23T21:13:49.641Z,96.40
2018-05-23T21:16:17.708Z,96.50
2018-05-23T21:18:45.793Z,96.40
2018-05-23T21:21:14.192Z,96.50
2018-05-23T21:23:42.246Z,96.40
2018-05-23T21:26:10.302Z,96.40
2018-05-23T21:28:38.401Z,96.50
2018-05-23T21:31:06.457Z,96.50
2018-05-23T21:33:34.516Z,96.40
2018-05-23T21:36:02.893Z,96.20
2018-05-23T21:38:31.157Z,96.10
2018-05-23T21:40:59.228Z,96.00
2018-05-23T21:43:27.724Z,96.10
2018-05-23T21:45:55.812Z,96.20
2018-05-23T21:48:23.865Z,96.40
2018-05-23T21:50:52.172Z,96.50
2018-05-23T21:53:20.261Z,96.40
2018-05-23T21:55:48.317Z,96.40
2018-05-23T21:58:16.664Z,96.50
2018-05-23T22:00:44.732Z,96.50
2018-05-23T22:03:12.800Z,96.40
2018-05-23T22:05:41.389Z,96.40
2018-05-23T22:08:09.477Z,96.50
2018-05-23T22:10:37.537Z,96.60
2018-05-23T22:13:05.629Z,96.60
2018-05-23T22:15:33.701Z,96.60
2018-05-23T22:18:01.777Z,96.70
2018-05-23T22:20:29.852Z,96.70
2018-05-23T22:22:57.926Z,96.70
2018-05-23T22:25:25.972Z,96.50
2018-05-23T22:27:54.785Z,96.30
2018-05-23T22:30:22.891Z,96.30
2018-05-23T22:32:50.896Z,96.30
2018-05-23T22:35:19.235Z,96.20
2018-05-23T22:37:47.273Z,96.10
2018-05-23T22:40:15.325Z,96.30
2018-05-23T22:42:43.393Z,96.40
2018-05-23T22:45:11.481Z,96.50
2018-05-23T22:47:39.569Z,96.40
2018-05-23T22:50:07.829Z,96.80
2018-05-23T22:52:36.105Z,96.60
2018-05-23T22:55:04.192Z,96.60
2018-05-23T22:57:32.533Z,96.70
2018-05-23T23:00:00.601Z,96.60
2018-05-23T23:02:28.668Z,96.70
2018-05-23T23:04:56.959Z,96.70
2018-05-23T23:07:25.665Z,96.60
2018-05-23T23:09:53.733Z,96.60
2018-05-23T23:12:22.185Z,96.70
2018-05-23T23:14:50.345Z,96.80
2018-05-23T23:17:18.415Z,96.80
2018-05-23T23:19:46.489Z,96.70
2018-05-23T23:22:14.585Z,96.60
2018-05-23T23:24:43.582Z,96.70
2018-05-23T23:27:11.653Z,96.70
2018-05-23T23:29:39.709Z,96.80
2018-05-23T23:32:07.792Z,96.60
2018-05-23T23:34:36.357Z,96.60
2018-05-23T23:37:04.428Z,96.70
2018-05-23T23:39:32.517Z,96.60
2018-05-23T23:42:00.684Z,96.70
2018-05-23T23:44:28.760Z,96.90
2018-05-23T23:46:56.820Z,96.90
2018-05-23T23:49:24.917Z,97.00
2018-05-23T23:51:52.992Z,97.00
2018-05-23T23:54:21.152Z,96.80
2018-05-23T23:56:49.416Z,96.70
2018-05-23T23:59:17.476Z,96.70
